首页
METAR-TAF:

METAR-TAF

机场 :

Mackinac Island Airport

Mackinac Island, 密歇根州, 美国

纬度: 45-51-54N, 经度: 084-38-14W, 海拔: 226米

当前天气观测

该预报发布于29分钟前的00:58 UTC
风速8节,风向
温度 13°C
湿度 82%
气压 1012 hPa
能見度: 16.1公里
阴天层高于4200英尺
小雨

METAR: KMCD 190058Z AUTO 08008KT 10SM -RA OVC042 13/10 A2989 RMK AO2 P0001 T01330101

时间: 21:27 (01:27 UTC)


TAF: 丢失

超过4000个机场的气象观测和天气预报(METAR&TAF报告)。

可查询的气象台以黄色和红色小点在地图上表示。

将鼠标移到小点上方,可查看气象台名称。

然后点击查看天气观测和预报。

如需切换地图:点击带黑十字的绿色按钮放大地图;点击带横线的绿色按钮缩小地图;或者点击绿色箭头查看邻近地区的地图。


METAR-TAF: